.
WxDataArchive / Data Records for 2012-08-18
2012-08-17 August 2012 2012-08-19

Data Records for Saturday, 18 August 2012

Time	Temp	Chill	HIndex	Humid	Dewpt	 Wind 	HiWind	WindDir	Rain 	Barom 
-----	----	-----	------	-----	-----	------	------	-------	-----	----- 
00:00	58.3	58.3	58.3	76	50.8	0	0	---	0.00	29.981 
00:05	58.0	58.0	58.0	76	50.5	0	0	---	0.00	29.981 
00:10	57.8	57.8	57.8	76	50.3	0	0	---	0.00	29.981 
00:15	57.5	57.5	57.5	77	50.3	0	0	---	0.00	29.985 
00:20	57.3	57.3	57.3	77	50.1	0	0	---	0.00	29.985 
00:25	57.0	57.0	57.0	78	50.2	0	0	---	0.00	29.985 
00:30	56.7	56.7	56.7	79	50.3	0	0	---	0.00	29.989 
00:35	56.5	56.5	56.5	79	50.1	0	0	---	0.00	29.989 
00:40	56.3	56.3	56.3	79	49.9	0	0	---	0.00	29.989 
00:45	56.0	56.0	56.0	79	49.6	0	0	---	0.00	29.991 
00:50	55.9	55.9	55.9	80	49.8	0	0	---	0.00	29.991 
00:55	55.6	55.6	55.6	81	49.9	0	0	---	0.00	29.991 
01:00	55.4	55.4	55.4	81	49.7	0	0	---	0.00	29.997 
01:05	55.1	55.1	55.1	82	49.7	0	0	---	0.00	29.997 
01:10	55.0	55.0	55.0	83	49.9	0	0	---	0.00	29.997 
01:15	54.8	54.8	54.8	84	50.1	0	0	---	0.00	29.993 
01:20	54.7	54.7	54.7	84	50.0	0	0	---	0.00	29.993 
01:25	54.5	54.5	54.5	84	49.8	0	0	---	0.00	29.993 
01:30	54.4	54.4	54.4	85	50.0	0	0	---	0.00	29.995 
01:35	54.2	54.2	54.2	85	49.8	0	0	---	0.00	29.995 
01:40	54.1	54.1	54.1	85	49.7	0	0	---	0.00	29.995 
01:45	54.1	54.1	54.1	85	49.7	0	0	---	0.00	29.994 
01:50	54.1	54.1	54.1	85	49.7	0	0	---	0.00	29.994 
01:55	54.1	54.1	54.1	85	49.7	0	0	---	0.00	29.994 
02:00	54.2	54.2	54.2	85	49.8	0	0	---	0.00	29.995 
02:05	54.4	54.4	54.4	85	50.0	0	0	---	0.00	29.995 
02:10	54.4	54.4	54.4	85	50.0	0	0	---	0.00	29.995 
02:15	54.2	54.2	54.2	85	49.8	0	0	---	0.00	29.993 
02:20	54.2	54.2	54.2	85	49.8	0	0	---	0.00	29.993 
02:25	54.1	54.1	54.1	85	49.7	0	0	---	0.00	29.993 
02:30	53.9	53.9	53.9	85	49.5	0	0	---	0.00	29.992 
02:35	53.8	53.8	53.8	85	49.4	0	0	---	0.00	29.992 
02:40	53.6	53.6	53.6	85	49.2	0	0	---	0.00	29.992 
02:45	53.5	53.5	53.5	86	49.4	0	0	---	0.00	29.992 
02:50	53.5	53.5	53.5	86	49.4	0	0	---	0.00	29.992 
02:55	53.5	53.5	53.5	87	49.7	0	0	---	0.00	29.992 
03:00	53.6	53.6	53.6	87	49.8	0	0	---	0.00	29.991 
03:05	53.6	53.6	53.6	87	49.8	0	0	---	0.00	29.991 
03:10	53.8	53.8	53.8	87	50.0	0	0	---	0.00	29.991 
03:15	53.6	53.6	53.6	87	49.8	0	0	---	0.00	29.997 
03:20	53.6	53.6	53.6	87	49.8	0	0	---	0.00	29.997 
03:25	53.5	53.5	53.5	87	49.7	0	0	---	0.00	29.997 
03:30	53.3	53.3	53.3	87	49.5	0	0	---	0.00	29.998 
03:35	53.2	53.2	53.2	87	49.4	0	0	---	0.00	29.998 
03:40	53.1	53.1	53.1	87	49.3	0	0	---	0.00	29.998 
03:45	52.9	52.9	52.9	87	49.1	0	0	---	0.00	29.997 
03:50	52.8	52.8	52.8	87	49.0	0	0	---	0.00	29.997 
03:55	52.6	52.6	52.6	88	49.1	0	0	---	0.00	29.997 
04:00	52.5	52.5	52.5	88	49.0	0	0	---	0.00	29.995 
04:05	52.3	52.3	52.3	88	48.9	0	0	---	0.00	29.995 
04:10	52.2	52.2	52.2	88	48.8	0	0	---	0.00	29.995 
04:15	52.2	52.2	52.2	89	49.1	0	0	---	0.00	29.990 
04:20	52.0	52.0	52.0	89	48.9	0	0	---	0.00	29.990 
04:25	52.0	52.0	52.0	89	48.9	0	0	---	0.00	29.990 
04:30	51.9	51.9	51.9	90	49.1	0	0	---	0.00	29.986 
04:35	51.9	51.9	51.9	90	49.1	0	0	---	0.00	29.986 
04:40	51.7	51.7	51.7	90	48.9	0	0	---	0.00	29.986 
04:45	51.7	51.7	51.7	90	48.9	0	0	---	0.00	29.987 
04:50	51.6	51.6	51.6	90	48.8	0	0	---	0.00	29.987 
04:55	51.6	51.6	51.6	90	48.8	0	0	---	0.00	29.987 
05:00	51.6	51.6	51.6	90	48.8	0	0	---	0.00	29.992 
05:05	51.4	51.4	51.4	91	48.9	0	0	---	0.00	29.992 
05:10	51.4	51.4	51.4	91	48.9	0	0	---	0.00	29.992 
05:15	51.3	51.3	51.3	91	48.8	0	0	---	0.00	29.992 
05:20	51.3	51.3	51.3	91	48.8	0	0	---	0.00	29.992 
05:25	51.1	51.1	51.1	91	48.6	0	0	---	0.00	29.992 
05:30	51.1	51.1	51.1	91	48.6	0	0	---	0.00	29.996 
05:35	51.1	51.1	51.1	91	48.6	0	0	---	0.00	29.996 
05:40	51.1	51.1	51.1	91	48.6	0	0	---	0.00	29.996 
05:45	51.0	51.0	51.0	91	48.5	0	0	---	0.00	29.996 
05:50	50.8	50.8	50.8	91	48.3	0	0	---	0.00	29.996 
05:55	50.8	50.8	50.8	92	48.6	0	0	---	0.00	29.996 
06:00	50.7	50.7	50.7	92	48.5	0	0	---	0.00	29.999 
06:05	50.7	50.7	50.7	92	48.5	0	0	---	0.00	29.999 
06:10	50.5	50.5	50.5	92	48.3	0	0	---	0.00	29.999 
06:15	50.4	50.4	50.4	92	48.2	0	0	---	0.00	30.001 
06:20	50.4	50.4	50.4	92	48.2	0	0	---	0.00	30.001 
06:25	50.4	50.4	50.4	92	48.2	0	0	---	0.00	30.001 
06:30	50.4	50.4	50.4	92	48.2	0	0	---	0.00	30.005 
06:35	50.4	50.4	50.4	92	48.2	0	0	---	0.00	30.005 
06:40	50.4	50.4	50.4	92	48.2	0	0	---	0.00	30.005 
06:45	50.4	50.4	50.4	92	48.2	0	0	---	0.00	30.007 
06:50	50.4	50.4	50.4	92	48.2	0	0	---	0.00	30.007 
06:55	50.2	50.2	50.2	92	48.0	0	0	---	0.00	30.007 
07:00	50.1	50.1	50.1	92	47.9	0	0	---	0.00	30.007 
07:05	50.2	50.2	50.2	92	48.0	0	0	---	0.00	30.007 
07:10	50.2	50.2	50.2	92	48.0	0	0	---	0.00	30.007 
07:15	50.2	50.2	50.2	92	48.0	0	0	---	0.00	30.005 
07:20	50.2	50.2	50.2	92	48.0	0	0	---	0.00	30.005 
07:25	50.2	50.2	50.2	92	48.0	0	0	---	0.00	30.005 
07:30	50.2	50.2	50.2	92	48.0	0	0	---	0.00	30.005 
07:35	50.4	50.4	50.4	93	48.5	0	0	---	0.00	30.005 
07:40	50.5	50.5	50.5	93	48.6	0	0	---	0.00	30.005 
07:45	50.8	50.8	50.8	93	48.8	0	0	---	0.00	30.007 
07:50	51.4	51.4	51.4	93	49.4	0	0	---	0.00	30.007 
07:55	51.9	51.9	51.9	93	49.9	0	0	---	0.00	30.007 
08:00	52.8	52.8	52.8	93	50.8	0	0	---	0.00	30.006 
08:05	53.5	53.5	53.5	92	51.2	0	0	---	0.00	30.006 
08:10	54.4	54.4	54.4	92	52.1	0	1	292	0.00	30.006 
08:15	55.3	55.3	55.3	90	52.4	0	0	---	0.00	30.012 
08:20	55.7	55.7	55.7	88	52.2	0	1	292	0.00	30.012 
08:25	56.5	56.5	56.5	84	51.7	0	1	292	0.00	30.012 
08:30	57.6	57.6	57.6	80	51.5	0	1	292	0.00	30.010 
08:35	58.4	58.4	58.4	78	51.6	0	3	292	0.00	30.010 
08:40	59.0	59.0	59.0	74	50.7	0	3	90	0.00	30.010 
08:45	59.6	59.6	59.6	71	50.2	1	3	90	0.00	30.013 
08:50	60.1	60.1	60.1	69	49.9	1	4	90	0.00	30.013 
08:55	60.4	60.4	60.4	69	50.2	0	2	90	0.00	30.013 
09:00	60.5	60.5	60.5	70	50.7	0	2	90	0.00	30.013 
09:05	60.5	60.5	60.5	70	50.7	1	3	90	0.00	30.013 
09:10	60.7	60.7	60.7	71	51.2	0	3	90	0.00	30.013 
09:15	61.0	61.0	61.0	66	49.6	2	5	90	0.00	30.017 
09:20	61.5	61.5	61.5	67	50.4	1	3	90	0.00	30.017 
09:25	61.8	61.8	61.8	65	49.9	1	4	90	0.00	30.017 
09:30	62.3	62.3	62.3	63	49.5	1	5	90	0.00	30.015 
09:35	62.6	62.6	62.6	63	49.8	1	5	112	0.00	30.015 
09:40	63.1	63.1	63.1	63	50.3	2	4	112	0.00	30.015 
09:45	63.5	63.5	63.5	58	48.5	2	6	112	0.00	30.015 
09:50	63.9	63.9	63.9	61	50.2	2	4	90	0.00	30.015 
09:55	64.0	64.0	64.0	60	49.8	1	4	90	0.00	30.015 
10:00	64.7	64.7	64.7	58	49.6	1	4	90	0.00	30.016 
10:05	64.7	64.7	64.7	58	49.6	3	9	90	0.00	30.016 
10:10	64.3	64.3	64.3	57	48.7	3	9	90	0.00	30.016 
10:15	64.5	64.5	64.5	57	48.9	2	5	90	0.00	30.020 
10:20	64.8	64.8	64.8	55	48.2	2	5	90	0.00	30.020 
10:25	65.5	65.5	65.5	54	48.4	1	5	90	0.00	30.020 
10:30	66.0	66.0	66.0	56	49.8	1	3	90	0.00	30.021 
10:35	66.4	66.4	66.4	53	48.7	2	6	90	0.00	30.021 
10:40	66.8	66.8	66.8	51	48.1	1	5	112	0.00	30.021 
10:45	66.9	66.9	66.9	51	48.2	2	3	90	0.00	30.022 
10:50	67.3	67.3	67.3	50	48.0	1	4	90	0.00	30.022 
10:55	67.6	67.6	67.6	49	47.8	2	4	90	0.00	30.022 
11:00	68.1	68.1	68.1	52	49.8	0	3	68	0.00	30.013 
11:05	68.6	68.6	68.6	51	49.7	2	5	112	0.00	30.013 
11:10	69.1	69.1	69.1	50	49.7	1	5	112	0.00	30.013 
11:15	69.4	69.4	69.4	45	47.1	1	6	112	0.00	30.017 
11:20	69.8	69.8	69.8	45	47.5	1	4	90	0.00	30.017 
11:25	69.8	69.8	69.8	46	48.1	2	4	90	0.00	30.017 
11:30	70.3	70.3	70.3	47	49.1	1	4	68	0.00	30.016 
11:35	70.6	70.6	70.6	47	49.4	1	4	68	0.00	30.016 
11:40	70.9	70.9	70.9	44	47.9	2	4	68	0.00	30.016 
11:45	70.8	70.8	70.8	45	48.4	2	6	90	0.00	30.013 
11:50	70.6	70.6	70.6	44	47.6	3	6	90	0.00	30.013 
11:55	70.4	70.4	70.4	46	48.6	2	6	90	0.00	30.013 
12:00	70.6	70.6	70.6	46	48.8	1	5	90	0.00	30.008 
12:05	70.9	70.9	70.9	46	49.1	0	1	90	0.00	30.008 
12:10	71.5	71.5	71.5	44	48.4	1	4	90	0.00	30.008 
12:15	72.1	72.1	72.1	44	49.0	1	3	112	0.00	30.010 
12:20	71.6	71.6	71.6	42	47.3	2	5	90	0.00	30.010 
12:25	71.3	71.3	71.3	48	50.6	0	2	90	0.00	30.010 
12:30	71.8	71.8	71.8	45	49.3	1	4	90	0.00	30.012 
12:35	72.3	72.3	72.3	44	49.2	1	3	90	0.00	30.012 
12:40	72.7	72.7	72.7	44	49.5	1	3	90	0.00	30.012 
12:45	72.7	72.7	72.7	45	50.1	1	4	90	0.00	30.006 
12:50	72.7	72.7	72.7	43	48.9	1	4	90	0.00	30.006 
12:55	72.3	72.3	72.3	43	48.5	0	2	248	0.00	30.006 
13:00	72.7	72.7	72.7	43	48.9	0	2	248	0.00	29.998 
13:05	73.2	73.2	73.2	44	50.0	1	3	248	0.00	29.998 
13:10	73.7	73.7	73.7	39	47.2	1	3	112	0.00	29.998 
13:15	73.5	73.5	73.5	44	50.2	1	5	68	0.00	29.999 
13:20	73.7	73.7	73.7	46	51.6	1	6	90	0.00	29.999 
13:25	73.0	73.0	73.0	44	49.8	2	5	90	0.00	29.999 
13:30	72.7	72.7	72.7	46	50.7	1	2	90	0.00	29.995 
13:35	73.0	73.0	73.0	42	48.5	1	3	90	0.00	29.995 
13:40	73.7	73.7	73.7	43	49.8	1	3	112	0.00	29.995 
13:45	73.7	73.7	73.7	49	53.3	2	4	112	0.00	29.984 
13:50	73.5	73.5	73.5	42	49.0	1	3	112	0.00	29.984 
13:55	73.5	73.5	73.5	41	48.3	1	4	112	0.00	29.984 
14:00	73.5	73.5	73.5	43	49.6	1	4	90	0.00	29.981 
14:05	73.3	73.3	73.3	44	50.1	1	4	90	0.00	29.981 
14:10	73.2	73.2	73.2	41	48.1	1	4	90	0.00	29.981 
14:15	73.3	73.3	73.3	43	49.4	1	5	90	0.00	29.981 
14:20	73.9	73.9	73.9	39	47.4	1	6	90	0.00	29.981 
14:25	73.9	73.9	73.9	37	46.0	1	4	90	0.00	29.981 
14:30	74.0	74.0	74.0	41	48.8	1	4	90	0.00	29.977 
14:35	74.4	74.4	74.4	40	48.5	1	3	90	0.00	29.977 
14:40	74.6	74.6	74.6	44	51.2	1	4	90	0.00	29.977 
14:45	74.9	74.9	74.9	39	48.3	1	4	68	0.00	29.978 
14:50	74.2	74.2	74.2	43	50.2	2	5	68	0.00	29.978 
14:55	74.2	74.2	74.2	40	48.3	0	3	68	0.00	29.978 
15:00	74.6	74.6	74.6	38	47.3	1	3	68	0.00	29.971 
15:05	74.6	74.6	74.6	38	47.3	1	2	248	0.00	29.971 
15:10	74.9	74.9	74.9	40	48.9	0	2	112	0.00	29.971 
15:15	74.7	74.7	74.7	41	49.4	1	5	90	0.00	29.966 
15:20	74.6	74.6	74.6	42	50.0	2	5	90	0.00	29.966 
15:25	74.2	74.2	74.2	41	49.0	2	6	90	0.00	29.966 
15:30	74.2	74.2	74.2	45	51.5	0	2	90	0.00	29.960 
15:35	74.4	74.4	74.4	42	49.8	1	3	90	0.00	29.960 
15:40	74.6	74.6	74.6	41	49.3	0	2	90	0.00	29.960 
15:45	74.6	74.6	74.6	37	46.6	2	6	90	0.00	29.952 
15:50	73.9	73.9	73.9	40	48.0	2	5	90	0.00	29.952 
15:55	73.7	73.7	73.7	35	44.3	1	3	90	0.00	29.952 
16:00	73.5	73.5	73.5	36	44.9	0	3	90	0.00	29.951 
16:05	73.7	73.7	73.7	40	47.9	1	3	90	0.00	29.951 
16:10	73.9	73.9	73.9	38	46.7	0	2	90	0.00	29.951 
16:15	74.0	74.0	74.0	41	48.8	1	3	90	0.00	29.945 
16:20	74.4	74.4	74.4	43	50.4	2	6	90	0.00	29.945 
16:25	74.7	74.7	74.7	42	50.1	1	3	90	0.00	29.945 
16:30	74.7	74.7	74.7	42	50.1	0	2	68	0.00	29.947 
16:35	74.7	74.7	74.7	36	46.0	1	4	68	0.00	29.947 
16:40	74.6	74.6	74.6	38	47.3	0	2	68	0.00	29.947 
16:45	74.6	74.6	74.6	39	48.0	2	4	90	0.00	29.948 
16:50	74.4	74.4	74.4	39	47.8	1	3	90	0.00	29.948 
16:55	74.4	74.4	74.4	38	47.1	1	3	90	0.00	29.948 
17:00	74.4	74.4	74.4	39	47.8	0	2	90	0.00	29.945 
17:05	74.4	74.4	74.4	36	45.7	0	2	90	0.00	29.945 
17:10	74.7	74.7	74.7	38	47.4	1	3	90	0.00	29.945 
17:15	74.7	74.7	74.7	40	48.8	1	4	135	0.00	29.947 
17:20	74.6	74.6	74.6	39	48.0	1	4	90	0.00	29.947 
17:25	74.4	74.4	74.4	39	47.8	1	2	90	0.00	29.947 
17:30	74.2	74.2	74.2	38	46.9	1	3	90	0.00	29.953 
17:35	74.2	74.2	74.2	43	50.2	0	2	90	0.00	29.953 
17:40	74.2	74.2	74.2	41	49.0	0	2	90	0.00	29.953 
17:45	74.0	74.0	74.0	40	48.1	1	3	90	0.00	29.947 
17:50	73.9	73.9	73.9	39	47.4	2	5	90	0.00	29.947 
17:55	73.5	73.5	73.5	38	46.3	2	4	90	0.00	29.947 
18:00	73.3	73.3	73.3	40	47.5	1	4	90	0.00	29.935 
18:05	73.3	73.3	73.3	43	49.4	0	2	90	0.00	29.935 
18:10	73.2	73.2	73.2	40	47.4	0	1	90	0.00	29.935 
18:15	73.0	73.0	73.0	38	45.9	0	4	90	0.00	29.940 
18:20	73.0	73.0	73.0	37	45.2	1	3	90	0.00	29.940 
18:25	73.0	73.0	73.0	39	46.6	1	4	112	0.00	29.940 
18:30	73.0	73.0	73.0	40	47.2	0	2	112	0.00	29.940 
18:35	72.8	72.8	72.8	39	46.4	1	4	112	0.00	29.940 
18:40	72.7	72.7	72.7	38	45.6	0	2	112	0.00	29.940 
18:45	72.7	72.7	72.7	37	44.9	1	3	112	0.00	29.930 
18:50	72.5	72.5	72.5	36	44.0	0	2	112	0.00	29.930 
18:55	72.3	72.3	72.3	36	43.8	1	4	112	0.00	29.930 
19:00	72.3	72.3	72.3	37	44.6	1	3	112	0.00	29.929 
19:05	72.3	----	72.3	37	44.6	---	0	---	0.00	29.929 
19:10	----	----	----	---	----	---	0	---	0.00	29.929 
19:15	----	----	----	---	----	---	0	---	0.00	29.938 
19:20	----	----	----	---	----	---	0	---	0.00	29.938 
19:25	71.8	71.8	71.8	36	43.4	0	0	---	0.00	29.938 
19:30	71.6	71.6	71.6	37	43.9	0	1	90	0.00	29.934 
19:35	71.5	71.5	71.5	37	43.8	0	2	90	0.00	29.934 
19:40	71.3	71.3	71.3	38	44.4	0	1	90	0.00	29.934 
19:45	71.1	71.1	71.1	40	45.5	0	2	90	0.00	29.934 
19:50	70.9	70.9	70.9	38	44.0	0	2	90	0.00	29.934 
19:55	70.9	70.9	70.9	39	44.7	0	2	90	0.00	29.934 
20:00	70.8	70.8	70.8	38	43.9	0	1	90	0.00	29.936 
20:05	70.4	70.4	70.4	39	44.2	0	0	---	0.00	29.936 
20:10	70.3	70.3	70.3	42	46.1	0	0	---	0.00	29.936 
20:15	69.9	69.9	69.9	42	45.8	0	0	---	0.00	29.935 
20:20	69.4	69.4	69.4	43	45.9	0	0	---	0.00	29.935 
20:25	68.9	68.9	68.9	45	46.7	0	0	---	0.00	29.935 
20:30	68.4	68.4	68.4	45	46.2	0	0	---	0.00	29.937 
20:35	67.8	67.8	67.8	46	46.3	0	0	---	0.00	29.937 
20:40	67.1	67.1	67.1	49	47.3	0	0	---	0.00	29.937 
20:45	66.4	66.4	66.4	50	47.2	0	0	---	0.00	29.936 
20:50	66.0	66.0	66.0	51	47.3	0	0	---	0.00	29.936 
20:55	65.5	65.5	65.5	53	47.9	0	0	---	0.00	29.936 
21:00	65.0	65.0	65.0	53	47.4	0	0	---	0.00	29.939 
21:05	64.5	64.5	64.5	55	48.0	0	0	---	0.00	29.939 
21:10	64.0	64.0	64.0	57	48.5	0	0	---	0.00	29.939 
21:15	63.7	63.7	63.7	57	48.2	0	0	---	0.00	29.936 
21:20	63.2	63.2	63.2	57	47.7	0	0	---	0.00	29.936 
21:25	62.9	62.9	62.9	58	47.9	0	0	---	0.00	29.936 
21:30	62.7	62.7	62.7	60	48.6	0	0	---	0.00	29.941 
21:35	62.4	62.4	62.4	62	49.2	0	0	---	0.00	29.941 
21:40	62.3	62.3	62.3	63	49.5	0	0	---	0.00	29.941 
21:45	62.0	62.0	62.0	63	49.3	0	0	---	0.00	29.941 
21:50	61.8	61.8	61.8	62	48.6	0	0	---	0.00	29.941 
21:55	61.5	61.5	61.5	63	48.8	0	0	---	0.00	29.941 
22:00	61.3	61.3	61.3	64	49.0	0	0	---	0.00	29.950 
22:05	61.0	61.0	61.0	64	48.7	0	0	---	0.00	29.950 
22:10	60.9	60.9	60.9	65	49.1	0	0	---	0.00	29.950 
22:15	60.5	60.5	60.5	66	49.1	0	0	---	0.00	29.948 
22:20	60.4	60.4	60.4	67	49.4	0	0	---	0.00	29.948 
22:25	60.1	60.1	60.1	69	49.9	0	0	---	0.00	29.948 
22:30	59.9	59.9	59.9	70	50.1	0	0	---	0.00	29.945 
22:35	59.8	59.8	59.8	71	50.4	0	0	---	0.00	29.945 
22:40	59.6	59.6	59.6	72	50.6	0	0	---	0.00	29.945 
22:45	59.5	59.5	59.5	72	50.5	0	0	---	0.00	29.941 
22:50	59.3	59.3	59.3	73	50.6	0	0	---	0.00	29.941 
22:55	59.2	59.2	59.2	74	50.9	0	0	---	0.00	29.941 
23:00	59.2	59.2	59.2	75	51.3	0	0	---	0.00	29.949 
23:05	59.0	59.0	59.0	75	51.1	0	0	---	0.00	29.949 
23:10	58.9	58.9	58.9	75	51.0	0	0	---	0.00	29.949 
23:15	58.7	58.7	58.7	75	50.8	0	0	---	0.00	29.943 
23:20	58.6	58.6	58.6	75	50.7	0	0	---	0.00	29.943 
23:25	58.6	58.6	58.6	75	50.7	0	0	---	0.00	29.943 
23:30	58.4	58.4	58.4	76	50.9	0	0	---	0.00	29.946 
23:35	58.4	58.4	58.4	76	50.9	0	0	---	0.00	29.946 
23:40	58.3	58.3	58.3	76	50.8	0	0	---	0.00	29.946 
23:45	58.3	58.3	58.3	77	51.1	0	0	---	0.00	29.949 
23:50	58.1	58.1	58.1	77	50.9	0	0	---	0.00	29.949 
23:55	58.1	58.1	58.1	77	50.9	0	0	---	0.00	29.949 

CoCoRaHS
IN-AL-39
A2 Web Hosting
Creative Commons License
GoDaddy
search engine by freefind advanced

loaded 2018-11-20 03:41:26 • last modified 2010-11-18 10:43:29
Privacy PolicyDisclaimer
• wx.awcolley.com is powered by PmWiki v.2002016 •
• all content (unless otherwise noted) © 2018 A W Colley